Time;durP1;ratioP1;P1;durP2;ratioP2;P2;SDS_P1;SDS_P2;PMS_P1;PMS_P2;Temp;Humidity;BMP_temperature;BMP_pressure;BME280_temperature;BME280_humidity;BME280_pressure;Samples;Min_cycle;Max_cycle;Signal;HPM_P1;HPM_P2
2022/04/23 00:00:56;;;;;;;11.27;10.10;;;12.90;90.20;;;;;;5058793;27;88563;-70
2022/04/23 00:03:24;;;;;;;13.15;10.50;;;12.90;90.20;;;;;;5059537;27;88838;-70
2022/04/23 00:05:51;;;;;;;12.43;11.15;;;12.90;90.20;;;;;;5059427;27;89470;-70
2022/04/23 00:08:18;;;;;;;11.27;10.23;;;12.90;90.30;;;;;;5059611;27;89345;-70
2022/04/23 00:10:45;;;;;;;11.80;10.50;;;12.90;90.40;;;;;;5057786;27;94093;-69
2022/04/23 00:13:12;;;;;;;10.63;9.02;;;12.80;90.40;;;;;;5057208;27;92166;-70
2022/04/23 00:15:39;;;;;;;10.60;9.50;;;12.80;90.50;;;;;;5057663;27;104727;-69
2022/04/23 00:18:10;;;;;;;12.48;9.48;;;12.70;90.60;;;;;;5058185;27;88016;-69
2022/04/23 00:20:38;;;;;;;11.20;9.57;;;12.70;90.70;;;;;;5058497;27;89957;-69
2022/04/23 00:23:06;;;;;;;11.10;9.38;;;12.70;90.70;;;;;;5059805;27;88605;-69
2022/04/23 00:25:40;;;;;;;12.98;9.32;;;12.70;90.90;;;;;;5058133;27;89934;-69
2022/04/23 00:28:09;;;;;;;11.18;9.20;;;12.70;90.90;;;;;;5058335;27;89344;-69
2022/04/23 00:30:36;;;;;;;10.73;8.48;;;12.60;91.10;;;;;;5060233;27;88378;-70
2022/04/23 00:33:03;;;;;;;10.45;8.55;;;12.60;91.20;;;;;;5059492;27;88039;-69
2022/04/23 00:35:31;;;;;;;9.40;8.43;;;12.50;91.10;;;;;;5058391;27;88965;-70
2022/04/23 00:37:58;;;;;;;11.05;9.13;;;12.50;91.10;;;;;;5057429;27;89323;-70
2022/04/23 00:40:25;;;;;;;10.35;9.00;;;12.50;91.20;;;;;;5058110;27;90992;-69
2022/04/23 00:42:55;;;;;;;12.52;9.00;;;12.50;91.30;;;;;;5058485;27;88854;-69
2022/04/23 00:45:24;;;;;;;11.25;8.93;;;12.40;91.40;;;;;;5059414;27;88698;-69
2022/04/23 00:47:52;;;;;;;10.88;8.63;;;12.40;91.50;;;;;;5058372;27;88058;-69
2022/04/23 00:50:23;;;;;;;12.07;8.88;;;12.40;91.50;;;;;;5058303;27;88516;-69
2022/04/23 00:52:52;;;;;;;10.20;8.63;;;12.30;91.60;;;;;;5057966;27;92016;-69
2022/04/23 00:55:19;;;;;;;11.77;9.48;;;12.30;91.70;;;;;;5059757;27;88527;-69
2022/04/23 00:57:47;;;;;;;12.13;9.02;;;12.30;91.70;;;;;;5059445;27;88046;-70
2022/04/23 01:00:15;;;;;;;11.07;8.93;;;12.30;91.80;;;;;;5058037;27;88406;-69
2022/04/23 01:02:42;;;;;;;10.32;9.05;;;12.30;91.70;;;;;;5058998;27;89439;-69
2022/04/23 01:05:09;;;;;;;10.18;9.18;;;12.20;91.90;;;;;;5040898;27;88245;-69
2022/04/23 01:07:38;;;;;;;12.30;9.23;;;12.20;91.90;;;;;;5041051;27;89495;-69
2022/04/23 01:10:08;;;;;;;12.10;9.25;;;12.20;91.90;;;;;;5058817;27;88175;-69
2022/04/23 01:12:36;;;;;;;14.02;9.93;;;12.20;91.90;;;;;;5057591;27;91467;-69
2022/04/23 01:15:06;;;;;;;11.63;9.25;;;12.10;92.00;;;;;;5057365;27;88705;-69
2022/04/23 01:17:34;;;;;;;10.85;9.82;;;12.10;92.00;;;;;;5058968;27;87884;-69
2022/04/23 01:20:06;;;;;;;12.65;9.63;;;12.10;92.10;;;;;;5057931;27;90931;-69
2022/04/23 01:22:35;;;;;;;11.98;10.40;;;12.10;92.10;;;;;;5059050;27;87906;-69
2022/04/23 01:25:06;;;;;;;11.63;9.45;;;12.00;92.10;;;;;;5057170;27;89344;-69
2022/04/23 01:27:36;;;;;;;12.07;9.23;;;12.00;92.30;;;;;;5057392;27;88910;-69
2022/04/23 01:30:05;;;;;;;10.82;9.48;;;11.90;92.50;;;;;;5058906;27;88302;-69
2022/04/23 01:32:32;;;;;;;10.63;9.52;;;11.90;92.50;;;;;;5058630;27;89220;-69
2022/04/23 01:34:59;;;;;;;12.40;9.65;;;11.90;92.80;;;;;;5058752;27;88808;-69
2022/04/23 01:37:26;;;;;;;12.10;9.57;;;11.80;92.90;;;;;;5057494;27;88244;-69
2022/04/23 01:39:53;;;;;;;13.13;10.38;;;11.70;93.00;;;;;;5058606;27;88384;-70
2022/04/23 01:42:20;;;;;;;11.48;10.18;;;11.70;93.10;;;;;;5056484;27;89234;-69
2022/04/23 01:44:48;;;;;;;11.23;9.77;;;11.60;93.10;;;;;;5056357;27;91861;-69
2022/04/23 01:47:16;;;;;;;14.15;10.77;;;11.60;93.20;;;;;;5057060;27;91517;-69
2022/04/23 01:49:44;;;;;;;12.55;10.27;;;11.60;93.30;;;;;;5057979;27;88524;-69
2022/04/23 01:52:11;;;;;;;11.13;9.82;;;11.50;93.30;;;;;;5057569;27;88772;-69
2022/04/23 01:54:38;;;;;;;13.70;10.45;;;11.50;93.30;;;;;;5058453;27;89218;-69
2022/04/23 01:57:06;;;;;;;12.98;10.63;;;11.50;93.40;;;;;;5039330;27;89230;-69
2022/04/23 01:59:33;;;;;;;12.63;11.10;;;11.50;93.40;;;;;;5057723;27;88749;-69
2022/04/23 02:02:01;;;;;;;13.07;10.65;;;11.40;93.50;;;;;;5057805;27;88740;-69
2022/04/23 02:04:28;;;;;;;12.57;10.90;;;11.40;93.50;;;;;;5057586;27;89522;-70
2022/04/23 02:06:55;;;;;;;13.70;11.15;;;11.30;93.60;;;;;;5039578;27;89090;-69
2022/04/23 02:09:23;;;;;;;12.82;10.85;;;11.30;93.70;;;;;;5039537;27;88411;-69
2022/04/23 02:11:50;;;;;;;12.35;10.90;;;11.20;93.80;;;;;;5022487;27;90055;-69
2022/04/23 02:14:17;;;;;;;15.02;11.38;;;11.30;93.90;;;;;;5055025;27;91949;-69
2022/04/23 02:16:43;;;;;;;14.40;11.90;;;11.20;93.90;;;;;;5055689;27;94186;-69
2022/04/23 02:19:10;;;;;;;12.65;10.88;;;11.20;93.90;;;;;;5057293;27;88424;-69
2022/04/23 02:21:38;;;;;;;13.55;11.15;;;11.20;94.00;;;;;;5057054;27;97462;-69
2022/04/23 02:24:05;;;;;;;12.63;11.32;;;11.10;94.00;;;;;;5055847;27;90563;-69
2022/04/23 02:26:32;;;;;;;14.25;11.52;;;11.10;94.10;;;;;;5056137;27;88955;-69
2022/04/23 02:28:59;;;;;;;15.43;11.77;;;11.10;94.10;;;;;;5057235;27;88537;-69
2022/04/23 02:31:26;;;;;;;14.68;11.60;;;11.10;94.00;;;;;;5055866;27;88977;-69
2022/04/23 02:33:53;;;;;;;17.23;13.13;;;11.00;94.20;;;;;;5055999;27;92066;-69
2022/04/23 02:36:20;;;;;;;13.00;11.07;;;11.00;94.40;;;;;;5058142;27;89019;-69
2022/04/23 02:38:51;;;;;;;15.68;11.95;;;11.00;94.40;;;;;;5059397;27;90896;-69
2022/04/23 02:41:18;;;;;;;16.88;12.20;;;10.90;94.50;;;;;;5060591;27;89671;-69
2022/04/23 02:43:45;;;;;;;17.00;11.40;;;10.90;94.50;;;;;;5060612;27;89502;-69
2022/04/23 02:46:14;;;;;;;14.98;11.48;;;10.90;94.60;;;;;;5060653;27;88702;-69
2022/04/23 02:48:42;;;;;;;15.52;11.38;;;10.80;94.60;;;;;;5060618;27;88487;-69
2022/04/23 02:51:15;;;;;;;14.05;11.20;;;10.80;94.70;;;;;;5060398;27;88908;-69
2022/04/23 02:53:45;;;;;;;15.77;13.32;;;10.70;94.70;;;;;;5059081;27;91530;-69
2022/04/23 02:56:16;;;;;;;15.30;12.43;;;10.80;94.80;;;;;;5059021;27;91860;-69
2022/04/23 02:58:44;;;;;;;14.27;11.77;;;10.80;94.80;;;;;;5060636;27;88415;-69
2022/04/23 03:01:11;;;;;;;16.88;13.32;;;10.70;94.80;;;;;;5057245;27;88802;-69
2022/04/23 03:03:40;;;;;;;15.20;12.48;;;10.60;95.00;;;;;;5072931;27;91907;-69
2022/04/23 03:06:07;;;;;;;14.23;12.20;;;10.70;95.00;;;;;;5054323;27;91662;-69
2022/04/23 03:08:40;;;;;;;15.45;12.18;;;10.60;95.00;;;;;;5039362;28;99088;-69
2022/04/23 03:11:07;;;;;;;13.43;11.32;;;10.60;95.00;;;;;;5072768;27;88638;-69
2022/04/23 03:13:35;;;;;;;15.80;12.23;;;10.50;95.00;;;;;;5039849;27;89326;-69
2022/04/23 03:16:03;;;;;;;15.35;12.88;;;10.50;95.10;;;;;;5037541;27;94344;-69
2022/04/23 03:18:30;;;;;;;16.42;12.70;;;10.50;95.20;;;;;;5038242;28;88462;-69
2022/04/23 03:20:58;;;;;;;12.23;10.18;;;10.50;95.20;;;;;;5038285;28;91329;-69
2022/04/23 03:23:25;;;;;;;17.50;13.07;;;10.40;95.30;;;;;;5038275;28;92098;-69
2022/04/23 03:25:52;;;;;;;16.23;13.18;;;10.40;95.40;;;;;;5039829;27;89138;-69
2022/04/23 03:28:20;;;;;;;16.75;12.60;;;10.40;95.40;;;;;;5038202;28;89923;-69
2022/04/23 03:30:47;;;;;;;15.50;13.00;;;10.40;95.30;;;;;;5038282;28;89520;-69
2022/04/23 03:33:14;;;;;;;17.85;13.45;;;10.30;95.30;;;;;;5038984;27;104930;-69
2022/04/23 03:35:41;;;;;;;14.75;12.63;;;10.30;95.40;;;;;;5039547;27;88521;-69
2022/04/23 03:38:09;;;;;;;18.02;13.82;;;10.30;95.40;;;;;;5039786;27;88839;-69
2022/04/23 03:40:36;;;;;;;14.70;13.15;;;10.30;95.40;;;;;;5037975;27;88822;-69
2022/04/23 03:43:03;;;;;;;13.52;12.05;;;10.20;95.40;;;;;;5037965;28;95216;-69
2022/04/23 03:45:32;;;;;;;17.75;12.60;;;10.20;95.40;;;;;;5039193;27;89583;-69
2022/04/23 03:48:01;;;;;;;15.52;12.45;;;10.20;95.40;;;;;;5037678;27;90881;-69
2022/04/23 03:50:29;;;;;;;15.00;12.18;;;10.20;95.50;;;;;;5038994;27;88931;-69
2022/04/23 03:52:56;;;;;;;14.50;12.15;;;10.20;95.40;;;;;;5054582;27;90943;-69
2022/04/23 03:55:26;;;;;;;14.60;10.93;;;10.10;95.40;;;;;;5071443;27;89753;-69
2022/04/23 03:57:54;;;;;;;17.50;12.57;;;10.10;95.40;;;;;;5038938;28;88455;-69
2022/04/23 04:00:21;;;;;;;13.25;11.85;;;10.00;95.50;;;;;;5037451;28;91128;-69
2022/04/23 04:02:54;;;;;;;14.38;12.40;;;10.00;95.50;;;;;;5039229;27;89311;-69
2022/04/23 04:05:23;;;;;;;15.40;12.15;;;10.10;95.40;;;;;;5039218;27;88949;-69
2022/04/23 04:07:50;;;;;;;14.30;12.90;;;10.00;95.40;;;;;;5037661;28;90966;-69
2022/04/23 04:10:19;;;;;;;17.35;13.18;;;10.00;95.40;;;;;;5071608;27;88874;-69
2022/04/23 04:12:47;;;;;;;15.68;12.68;;;10.00;95.40;;;;;;5039161;27;89422;-69
2022/04/23 04:15:15;;;;;;;13.68;12.00;;;10.00;95.30;;;;;;5036859;28;99136;-69
2022/04/23 04:17:48;;;;;;;12.80;11.00;;;10.00;95.30;;;;;;5038499;28;88474;-69
2022/04/23 04:20:15;;;;;;;13.63;11.82;;;10.00;95.20;;;;;;5037393;28;92172;-69
2022/04/23 04:22:44;;;;;;;17.35;12.35;;;9.90;95.10;;;;;;5071159;27;89329;-69
2022/04/23 04:25:13;;;;;;;14.45;12.32;;;9.90;95.10;;;;;;5071465;27;89246;-69
2022/04/23 04:27:41;;;;;;;13.73;12.10;;;10.00;95.10;;;;;;5070807;27;88501;-69
2022/04/23 04:30:10;;;;;;;12.82;10.63;;;10.00;94.90;;;;;;5038490;28;91728;-69
2022/04/23 04:32:37;;;;;;;12.82;11.55;;;9.90;94.80;;;;;;5037118;28;91822;-69
2022/04/23 04:35:04;;;;;;;13.40;11.57;;;10.00;94.70;;;;;;5038628;27;89911;-69
2022/04/23 04:37:31;;;;;;;12.70;11.45;;;9.90;94.60;;;;;;5038433;28;88429;-69
2022/04/23 04:39:58;;;;;;;13.18;11.88;;;10.00;94.50;;;;;;5038424;27;88811;-69
2022/04/23 04:42:25;;;;;;;11.82;10.73;;;10.00;94.30;;;;;;5036886;28;91082;-69
2022/04/23 04:44:55;;;;;;;13.63;12.27;;;10.00;94.20;;;;;;5038407;28;89142;-69
2022/04/23 04:47:22;;;;;;;12.02;10.82;;;10.10;94.20;;;;;;5036868;27;90940;-69
2022/04/23 04:49:49;;;;;;;12.52;11.30;;;10.10;94.00;;;;;;5053975;27;88563;-69
2022/04/23 04:52:16;;;;;;;12.30;11.05;;;10.20;94.10;;;;;;5036975;27;91956;-69
2022/04/23 04:54:43;;;;;;;12.13;10.35;;;10.20;93.50;;;;;;5070345;27;99697;-69
2022/04/23 04:57:10;;;;;;;13.25;11.13;;;10.30;93.40;;;;;;5070930;27;88552;-69
2022/04/23 04:59:37;;;;;;;12.77;11.48;;;10.40;93.30;;;;;;5069527;27;88689;-69
2022/04/23 05:02:05;;;;;;;12.07;10.88;;;10.50;93.10;;;;;;5038390;27;90202;-69
2022/04/23 05:04:32;;;;;;;12.20;10.90;;;10.60;92.70;;;;;;5037730;28;89027;-69
2022/04/23 05:06:59;;;;;;;11.73;10.43;;;10.90;92.50;;;;;;5070360;27;88784;-71
2022/04/23 05:09:26;;;;;;;11.82;10.75;;;11.00;92.00;;;;;;5053452;27;91935;-70
2022/04/23 05:11:53;;;;;;;11.75;10.60;;;11.30;91.50;;;;;;5037944;28;92344;-70
2022/04/23 05:14:20;;;;;;;12.25;10.93;;;11.30;91.40;;;;;;5037522;27;89031;-70
2022/04/23 05:16:47;;;;;;;11.43;10.32;;;11.30;91.20;;;;;;5053451;27;88705;-70
2022/04/23 05:19:14;;;;;;;11.20;10.00;;;11.30;91.20;;;;;;5037882;28;88660;-70
2022/04/23 05:21:41;;;;;;;12.07;10.98;;;11.50;91.10;;;;;;5037705;28;89588;-70
2022/04/23 05:24:08;;;;;;;10.50;9.50;;;11.80;90.40;;;;;;5070310;27;91697;-70
2022/04/23 05:26:35;;;;;;;10.32;9.32;;;12.20;90.00;;;;;;5038738;27;88319;-70
2022/04/23 05:29:03;;;;;;;11.00;10.00;;;12.50;88.30;;;;;;5053864;27;88711;-70
2022/04/23 05:31:32;;;;;;;10.75;9.75;;;12.80;87.50;;;;;;5037496;27;88542;-70
2022/04/23 05:33:59;;;;;;;11.52;10.43;;;13.20;86.70;;;;;;5069847;27;88913;-70
2022/04/23 05:36:26;;;;;;;10.65;9.60;;;13.40;85.40;;;;;;5037602;27;88449;-70
2022/04/23 05:38:54;;;;;;;11.45;10.25;;;13.40;85.10;;;;;;5070700;27;87962;-70
2022/04/23 05:41:22;;;;;;;10.65;9.45;;;13.60;84.60;;;;;;5036211;28;90524;-71
2022/04/23 05:43:49;;;;;;;11.52;10.52;;;13.80;83.60;;;;;;5038046;27;88923;-70
2022/04/23 05:46:17;;;;;;;10.38;9.38;;;13.90;83.10;;;;;;5037487;28;88730;-71
2022/04/23 05:48:44;;;;;;;11.75;10.50;;;14.10;82.30;;;;;;5070114;27;107442;-70
2022/04/23 05:51:11;;;;;;;11.50;10.45;;;14.40;81.20;;;;;;5036128;28;92137;-70
2022/04/23 05:53:38;;;;;;;12.05;11.05;;;14.30;80.40;;;;;;5037044;27;89039;-71
2022/04/23 05:56:05;;;;;;;11.77;10.68;;;14.20;80.30;;;;;;5037229;27;88323;-70
2022/04/23 05:58:36;;;;;;;12.68;11.35;;;14.00;81.00;;;;;;5069807;27;89444;-70
2022/04/23 06:01:04;;;;;;;11.98;9.82;;;13.80;81.90;;;;;;5037367;28;89410;-71
2022/04/23 06:03:31;;;;;;;11.60;10.23;;;13.70;82.10;;;;;;5037807;28;89088;-70
2022/04/23 06:05:58;;;;;;;10.05;9.15;;;13.90;80.30;;;;;;5069378;27;88501;-70
2022/04/23 06:08:25;;;;;;;10.23;9.02;;;14.30;80.00;;;;;;5070623;27;91573;-71
2022/04/23 06:10:52;;;;;;;10.25;9.32;;;14.60;78.90;;;;;;5069872;27;88939;-71
2022/04/23 06:13:19;;;;;;;10.63;9.73;;;15.00;77.10;;;;;;5038027;27;88091;-71
2022/04/23 06:15:46;;;;;;;11.38;10.27;;;15.20;75.60;;;;;;5037222;27;87674;-71
2022/04/23 06:18:13;;;;;;;11.60;10.60;;;15.30;75.10;;;;;;5037029;27;88705;-71
2022/04/23 06:20:40;;;;;;;12.02;10.88;;;15.20;74.10;;;;;;5069356;27;89475;-71
2022/04/23 06:23:07;;;;;;;10.48;9.57;;;15.10;74.60;;;;;;5069282;27;88888;-71
2022/04/23 06:25:34;;;;;;;10.23;9.43;;;15.10;75.00;;;;;;5037811;27;88256;-71
2022/04/23 06:28:01;;;;;;;11.43;10.32;;;15.30;74.00;;;;;;5069583;27;88877;-71
2022/04/23 06:30:28;;;;;;;11.23;10.13;;;15.60;73.30;;;;;;5036768;27;89321;-71
2022/04/23 06:32:55;;;;;;;12.57;11.45;;;15.70;72.60;;;;;;5069157;27;89055;-71
2022/04/23 06:35:24;;;;;;;12.13;10.95;;;15.50;72.70;;;;;;5036775;27;88441;-71
2022/04/23 06:37:51;;;;;;;11.93;10.73;;;15.20;72.60;;;;;;5068428;27;88815;-71
2022/04/23 06:40:18;;;;;;;12.38;11.18;;;15.10;73.00;;;;;;5051994;27;91899;-71
2022/04/23 06:42:45;;;;;;;12.15;9.45;;;15.30;73.30;;;;;;5036196;27;88901;-71
2022/04/23 06:45:12;;;;;;;11.60;10.48;;;15.40;73.50;;;;;;5069484;27;90729;-71
2022/04/23 06:47:39;;;;;;;12.07;10.98;;;15.40;72.30;;;;;;5034582;28;92037;-71
2022/04/23 06:50:06;;;;;;;12.05;10.95;;;15.60;71.80;;;;;;5034706;28;90926;-71
2022/04/23 06:52:34;;;;;;;12.07;10.85;;;15.50;71.90;;;;;;5051514;27;91733;-71
2022/04/23 06:55:01;;;;;;;12.27;10.30;;;15.40;71.90;;;;;;5051195;27;93897;-71
2022/04/23 06:57:28;;;;;;;12.50;11.00;;;15.30;72.50;;;;;;5068753;27;89406;-71
2022/04/23 06:59:55;;;;;;;13.32;11.35;;;15.20;72.70;;;;;;5035834;28;89143;-71
2022/04/23 07:02:22;;;;;;;11.30;10.18;;;15.10;72.70;;;;;;5036193;27;88714;-71
2022/04/23 07:04:49;;;;;;;12.98;10.98;;;15.20;73.30;;;;;;5035969;27;88440;-71
2022/04/23 07:07:16;;;;;;;12.20;11.07;;;15.30;72.90;;;;;;5034289;28;91280;-71
2022/04/23 07:09:42;;;;;;;11.90;10.70;;;15.40;72.20;;;;;;5035529;27;89231;-71
2022/04/23 07:12:10;;;;;;;11.40;9.68;;;15.60;71.80;;;;;;5036095;28;89171;-71
2022/04/23 07:14:38;;;;;;;12.68;11.40;;;15.60;71.10;;;;;;5036270;27;88359;-71
2022/04/23 07:17:07;;;;;;;11.82;10.82;;;15.50;70.60;;;;;;5036028;28;89033;-71
2022/04/23 07:19:39;;;;;;;11.65;10.57;;;15.60;70.90;;;;;;5035836;27;89488;-71
2022/04/23 07:22:08;;;;;;;12.23;11.00;;;15.60;70.30;;;;;;5036527;27;89060;-71
2022/04/23 07:24:35;;;;;;;11.98;10.77;;;15.80;69.90;;;;;;5037855;28;95243;-71
2022/04/23 07:27:03;;;;;;;12.10;10.93;;;15.90;69.60;;;;;;5071873;27;91249;-71
2022/04/23 07:29:30;;;;;;;12.65;11.43;;;16.20;69.10;;;;;;5038257;28;89955;-71
2022/04/23 07:31:58;;;;;;;11.40;10.07;;;16.10;68.60;;;;;;5071297;27;89162;-71
2022/04/23 07:37:28;;;;;;;10.70;9.55;;;16.20;67.80;;;;;;5039233;27;89466;-71
2022/04/23 07:40:00;;;;;;;12.73;11.63;;;16.30;68.20;;;;;;5072172;27;89389;-71
2022/04/23 07:42:27;;;;;;;10.68;9.77;;;16.40;68.10;;;;;;5037654;28;89826;-71
2022/04/23 07:44:54;;;;;;;10.90;10.00;;;16.40;68.00;;;;;;5039420;27;88413;-71
2022/04/23 07:47:21;;;;;;;11.98;10.98;;;16.40;67.90;;;;;;5071065;27;89502;-71
2022/04/23 07:49:48;;;;;;;12.55;11.55;;;16.40;67.70;;;;;;5037537;28;89332;-71
2022/04/23 07:52:16;;;;;;;12.40;11.20;;;16.50;67.00;;;;;;5071381;27;91611;-71
2022/04/23 07:54:43;;;;;;;13.07;11.93;;;16.90;66.30;;;;;;5039122;27;88448;-71
2022/04/23 07:57:11;;;;;;;12.82;11.93;;;17.40;65.30;;;;;;5054074;27;91345;-71
2022/04/23 07:59:42;;;;;;;12.65;11.68;;;17.70;62.70;;;;;;5038976;28;89528;-71
2022/04/23 08:02:10;;;;;;;12.38;11.35;;;18.40;62.10;;;;;;5070131;27;89118;-71
2022/04/23 08:04:37;;;;;;;13.20;12.30;;;18.70;60.30;;;;;;5037349;27;91397;-71
2022/04/23 08:07:04;;;;;;;12.98;11.95;;;19.40;58.50;;;;;;5038652;28;88868;-71
2022/04/23 08:09:37;;;;;;;13.88;12.52;;;19.90;55.90;;;;;;5038822;27;89339;-71
2022/04/23 08:12:35;;;;;;;13.63;12.57;;;20.10;54.70;;;;;;5038837;28;89093;-71
2022/04/23 08:15:29;;;;;;;13.57;12.55;;;20.70;53.50;;;;;;5037871;28;88505;-71
2022/04/23 08:17:56;;;;;;;11.68;10.77;;;21.30;51.60;;;;;;5038439;28;89272;-71
2022/04/23 08:20:35;;;;;;;13.27;12.23;;;21.60;51.00;;;;;;5054019;27;91044;-71
2022/04/23 08:23:37;;;;;;;13.48;12.35;;;22.20;48.90;;;;;;5038314;27;90453;-71
2022/04/23 08:26:05;;;;;;;13.13;12.07;;;22.20;49.00;;;;;;5053382;27;90966;-71
2022/04/23 08:31:24;;;;;;;12.70;11.70;;;22.50;45.70;;;;;;5037000;27;90629;-71
2022/04/23 08:34:00;;;;;;;12.48;11.40;;;22.60;43.50;;;;;;5053753;27;91778;-71
2022/04/23 08:36:46;;;;;;;12.00;10.93;;;22.40;42.30;;;;;;5038487;27;88473;-71
2022/04/23 08:39:13;;;;;;;11.43;10.52;;;22.20;42.10;;;;;;5036322;28;90380;-71
2022/04/23 08:41:40;;;;;;;12.05;11.15;;;22.00;43.40;;;;;;5053577;27;92035;-71
2022/04/23 08:44:08;;;;;;;11.02;10.23;;;21.70;42.80;;;;;;5070190;27;88991;-71
2022/04/23 08:46:44;;;;;;;9.95;9.05;;;21.40;42.80;;;;;;5053798;27;90997;-71
2022/04/23 08:49:16;;;;;;;11.68;10.63;;;21.50;43.70;;;;;;5037074;28;94101;-71
2022/04/23 08:51:59;;;;;;;10.82;9.80;;;21.10;44.90;;;;;;5036579;28;91863;-71
2022/04/23 08:54:26;;;;;;;10.90;9.90;;;20.70;46.50;;;;;;5038500;27;89121;-71
2022/04/23 08:56:53;;;;;;;9.98;9.23;;;20.00;45.80;;;;;;5054334;27;88424;-71
2022/04/23 08:59:21;;;;;;;10.57;8.82;;;19.00;47.70;;;;;;5036990;28;88852;-71
2022/04/23 09:01:54;;;;;;;10.18;8.48;;;18.40;48.60;;;;;;5038855;28;88555;-71
2022/04/23 09:04:21;;;;;;;10.50;9.50;;;18.20;50.80;;;;;;5036304;28;106581;-71
2022/04/23 09:06:48;;;;;;;10.15;9.25;;;17.90;52.10;;;;;;5038621;27;88028;-71
2022/04/23 09:09:19;;;;;;;11.55;9.50;;;17.60;52.60;;;;;;5038195;27;88824;-70
2022/04/23 09:11:56;;;;;;;10.77;9.70;;;17.40;52.60;;;;;;5037498;28;91524;-71
2022/04/23 09:14:33;;;;;;;15.15;9.95;;;17.30;54.60;;;;;;5038788;27;88338;-71
2022/04/23 09:25:35;;;;;;;11.60;10.43;;;16.80;55.60;;;;;;5038302;27;88483;-71
2022/04/23 09:28:27;;;;;;;9.23;8.40;;;16.80;55.70;;;;;;5036184;28;89709;-70
2022/04/23 09:30:56;;;;;;;10.40;9.40;;;16.50;55.80;;;;;;5037158;27;88573;-70
2022/04/23 09:33:28;;;;;;;10.40;9.45;;;16.50;56.70;;;;;;5053343;27;91258;-70
2022/04/23 09:35:59;;;;;;;10.90;9.93;;;16.50;57.40;;;;;;5038656;27;87939;-70
2022/04/23 09:38:27;;;;;;;10.88;9.77;;;16.50;57.40;;;;;;5038902;28;89390;-71
2022/04/23 09:40:55;;;;;;;10.73;9.82;;;16.50;56.90;;;;;;5036671;28;89822;-71
2022/04/23 09:43:30;;;;;;;12.43;11.32;;;16.60;56.70;;;;;;5037897;28;88729;-71
2022/04/23 09:46:04;;;;;;;12.20;11.00;;;16.60;57.50;;;;;;5035600;28;89972;-71
2022/04/23 09:48:39;;;;;;;10.98;9.35;;;16.50;57.60;;;;;;5037445;27;88432;-70
2022/04/23 09:51:26;;;;;;;13.13;10.75;;;16.40;58.00;;;;;;5011534;27;88820;-71
2022/04/23 09:53:54;;;;;;;13.25;10.48;;;16.50;58.10;;;;;;5017325;28;89400;-71
2022/04/23 09:56:23;;;;;;;11.35;10.18;;;16.50;58.40;;;;;;5016587;28;88748;-71
2022/04/23 09:58:51;;;;;;;11.10;10.00;;;16.50;57.80;;;;;;5015335;28;90987;-71
2022/04/23 10:01:20;;;;;;;11.02;9.95;;;16.50;56.90;;;;;;5031834;27;91443;-70
2022/04/23 10:03:54;;;;;;;11.68;10.48;;;16.60;57.00;;;;;;5016843;28;88842;-70
2022/04/23 10:06:23;;;;;;;10.25;9.25;;;16.60;56.80;;;;;;5016910;28;88480;-71
2022/04/23 10:08:57;;;;;;;12.25;9.15;;;16.60;56.80;;;;;;5017564;28;88441;-70
2022/04/23 10:11:30;;;;;;;9.75;8.75;;;16.70;56.10;;;;;;5015684;28;92639;-70
2022/04/23 10:14:06;;;;;;;10.77;9.82;;;16.70;56.00;;;;;;5017663;28;89158;-71
2022/04/23 10:16:34;;;;;;;12.02;10.88;;;16.70;56.30;;;;;;5016438;28;88252;-70
2022/04/23 10:19:01;;;;;;;9.48;8.57;;;16.70;56.10;;;;;;5016941;28;88496;-70
2022/04/23 10:21:53;;;;;;;10.80;9.70;;;16.80;55.60;;;;;;5017311;28;88764;-70
2022/04/23 10:24:39;;;;;;;11.70;10.27;;;16.80;55.00;;;;;;5017556;28;88028;-70
2022/04/23 10:27:09;;;;;;;10.88;9.98;;;16.80;55.70;;;;;;5016953;28;88480;-71
2022/04/23 10:29:37;;;;;;;11.20;9.23;;;16.70;55.70;;;;;;5032242;28;90818;-71
2022/04/23 10:32:13;;;;;;;9.30;8.13;;;16.70;55.30;;;;;;5017496;28;88791;-70
2022/04/23 10:34:41;;;;;;;10.82;9.73;;;16.80;55.30;;;;;;5017356;28;88927;-71
2022/04/23 10:37:27;;;;;;;11.95;10.77;;;16.80;55.50;;;;;;5017234;28;88828;-71
2022/04/23 10:39:54;;;;;;;10.77;9.68;;;17.00;56.00;;;;;;5016700;28;88425;-71
2022/04/23 10:42:25;;;;;;;11.23;10.23;;;16.80;55.00;;;;;;5016744;28;88764;-70
2022/04/23 10:44:55;;;;;;;10.90;9.90;;;16.90;55.20;;;;;;5016231;28;89428;-71
2022/04/23 10:47:36;;;;;;;10.70;9.45;;;17.00;55.50;;;;;;5015693;28;89145;-70
2022/04/23 10:50:29;;;;;;;10.77;9.63;;;17.00;56.10;;;;;;5015858;28;93668;-71
2022/04/23 10:53:02;;;;;;;10.80;9.90;;;17.00;55.10;;;;;;5015706;28;88904;-70
2022/04/23 10:55:29;;;;;;;12.35;10.48;;;17.10;55.10;;;;;;5017592;28;89074;-71
2022/04/23 10:58:21;;;;;;;12.13;10.93;;;17.10;55.50;;;;;;5018526;28;88425;-71
2022/04/23 11:00:48;;;;;;;11.75;10.65;;;17.20;55.50;;;;;;5019986;28;88545;-70
2022/04/23 11:03:15;;;;;;;11.98;10.55;;;17.20;55.60;;;;;;5019394;28;88775;-71
2022/04/23 11:14:41;;;;;;;16.13;11.67;;;17.30;54.80;;;;;;5020042;28;88686;-72
2022/04/23 11:17:12;;;;;;;10.85;9.82;;;17.50;54.80;;;;;;5019732;28;90030;-69
2022/04/23 11:19:40;;;;;;;12.20;11.07;;;17.40;54.40;;;;;;5018823;28;91791;-69
2022/04/23 11:22:12;;;;;;;11.68;10.68;;;17.50;54.40;;;;;;5019804;28;88432;-69
2022/04/23 11:24:39;;;;;;;15.02;11.27;;;17.50;54.10;;;;;;5018029;28;92029;-69
2022/04/23 11:27:08;;;;;;;13.23;12.00;;;17.60;54.00;;;;;;5051746;27;89413;-69
2022/04/23 11:29:37;;;;;;;11.20;10.18;;;17.70;55.40;;;;;;5019033;28;88935;-69
2022/04/23 11:32:05;;;;;;;10.50;9.55;;;17.70;53.70;;;;;;5019379;28;88476;-69
2022/04/23 11:34:38;;;;;;;11.10;10.13;;;17.90;51.90;;;;;;5002271;28;88084;-69
2022/04/23 11:37:06;;;;;;;10.30;9.40;;;17.90;51.30;;;;;;5019464;28;89450;-69
2022/04/23 11:39:33;;;;;;;10.80;9.23;;;17.90;50.30;;;;;;5018612;28;88911;-69
2022/04/23 11:42:00;;;;;;;10.32;9.35;;;17.90;49.50;;;;;;5019850;28;91110;-69
2022/04/23 11:47:27;;;;;;;9.82;9.00;;;18.00;49.80;;;;;;5020339;28;88504;-69
2022/04/23 11:50:17;;;;;;;9.55;8.75;;;18.00;49.40;;;;;;5018581;28;89482;-69
2022/04/23 11:52:55;;;;;;;10.10;8.57;;;18.10;49.10;;;;;;5018416;28;89920;-70
2022/04/23 11:55:26;;;;;;;8.57;7.50;;;18.10;49.00;;;;;;5019448;28;89135;-69
2022/04/23 11:58:07;;;;;;;10.70;8.95;;;18.10;48.60;;;;;;5019890;28;89357;-69
2022/04/23 12:00:34;;;;;;;9.80;8.90;;;18.20;49.30;;;;;;5019575;28;88889;-69
2022/04/23 12:03:02;;;;;;;9.98;9.00;;;18.20;49.10;;;;;;5023028;27;88018;-69
2022/04/23 12:05:32;;;;;;;10.90;9.10;;;18.20;48.20;;;;;;5026507;27;87972;-69
2022/04/23 12:07:59;;;;;;;8.82;7.97;;;18.30;48.60;;;;;;5019272;28;88683;-69
2022/04/23 12:10:31;;;;;;;8.95;8.05;;;18.40;46.90;;;;;;5018023;28;89284;-69
2022/04/23 12:13:08;;;;;;;9.57;8.52;;;18.50;46.40;;;;;;5020215;28;88414;-69
2022/04/23 12:15:45;;;;;;;8.25;7.35;;;18.50;45.70;;;;;;5018944;28;88947;-69
2022/04/23 12:18:17;;;;;;;12.43;8.25;;;18.50;46.30;;;;;;5019696;28;88916;-70
2022/04/23 12:20:44;;;;;;;8.52;7.72;;;18.50;45.90;;;;;;5018935;28;88631;-69
2022/04/23 12:23:11;;;;;;;8.75;8.05;;;18.50;45.90;;;;;;5019700;28;88432;-69
2022/04/23 12:25:39;;;;;;;9.10;8.20;;;18.60;45.80;;;;;;5017645;28;90517;-69
2022/04/23 12:42:11;;;;;;;9.05;8.35;;;18.70;46.30;;;;;;5019497;28;87980;-69
2022/04/23 12:44:45;;;;;;;10.32;9.40;;;18.70;45.60;;;;;;5017630;28;92326;-70
2022/04/23 12:47:26;;;;;;;9.18;8.38;;;18.70;45.50;;;;;;5017284;28;91973;-71
2022/04/23 12:50:00;;;;;;;9.60;8.70;;;18.70;45.00;;;;;;5019236;28;89479;-71
2022/04/23 12:52:41;;;;;;;17.60;8.55;;;18.80;45.30;;;;;;5019167;28;87939;-71
2022/04/23 12:55:19;;;;;;;8.48;7.75;;;18.80;44.90;;;;;;5051373;27;88307;-71
2022/04/23 12:57:48;;;;;;;7.93;7.22;;;18.80;43.60;;;;;;5017425;28;88936;-71
2022/04/23 13:00:17;;;;;;;7.78;7.10;;;18.80;43.80;;;;;;5018463;28;88691;-71
2022/04/23 13:02:48;;;;;;;10.27;7.10;;;18.80;44.20;;;;;;5018690;28;88119;-71
2022/04/23 13:05:15;;;;;;;6.78;6.25;;;18.80;42.40;;;;;;5019361;28;88271;-71
2022/04/23 13:10:28;;;;;;;7.43;6.65;;;18.90;42.60;;;;;;5018694;28;89235;-71
2022/04/23 13:12:56;;;;;;;9.18;6.50;;;18.90;41.80;;;;;;5050877;27;88784;-71
2022/04/23 13:15:23;;;;;;;6.78;6.18;;;18.90;42.30;;;;;;5018160;28;88678;-72
2022/04/23 13:17:50;;;;;;;8.63;7.30;;;18.90;41.70;;;;;;5018667;28;90800;-71
2022/04/23 13:20:18;;;;;;;7.45;6.85;;;18.90;41.90;;;;;;5017635;28;88688;-71
2022/04/23 13:22:46;;;;;;;6.53;6.00;;;18.80;41.00;;;;;;5016174;28;107501;-71
2022/04/23 13:25:18;;;;;;;6.35;5.75;;;18.90;41.90;;;;;;5018785;28;88375;-71
2022/04/23 13:27:48;;;;;;;6.32;5.82;;;18.90;42.20;;;;;;5018232;28;88898;-71